sensor_id;sensor_type;location;lat;lon;timestamp;P1;durP1;ratioP1;P2;durP2;ratioP2
51034;SDS011;37062;52.546;13.230;2023-04-24T00:00:38;5.25;;;3.72;;
51034;SDS011;37062;52.546;13.230;2023-04-24T00:03:07;4.05;;;3.65;;
51034;SDS011;37062;52.546;13.230;2023-04-24T00:05:35;4.63;;;4.05;;
51034;SDS011;37062;52.546;13.230;2023-04-24T00:08:03;4.10;;;3.70;;
51034;SDS011;37062;52.546;13.230;2023-04-24T00:10:33;5.68;;;4.20;;
51034;SDS011;37062;52.546;13.230;2023-04-24T00:13:02;4.40;;;4.00;;
51034;SDS011;37062;52.546;13.230;2023-04-24T00:15:30;4.20;;;3.72;;
51034;SDS011;37062;52.546;13.230;2023-04-24T00:17:58;4.93;;;3.90;;
51034;SDS011;37062;52.546;13.230;2023-04-24T00:20:27;4.32;;;3.92;;
51034;SDS011;37062;52.546;13.230;2023-04-24T00:22:56;4.13;;;3.50;;
51034;SDS011;37062;52.546;13.230;2023-04-24T00:25:24;4.72;;;4.32;;
51034;SDS011;37062;52.546;13.230;2023-04-24T00:27:53;4.38;;;3.83;;
51034;SDS011;37062;52.546;13.230;2023-04-24T00:30:22;4.65;;;4.25;;
51034;SDS011;37062;52.546;13.230;2023-04-24T00:32:50;4.32;;;3.92;;
51034;SDS011;37062;52.546;13.230;2023-04-24T00:35:18;4.68;;;3.95;;
51034;SDS011;37062;52.546;13.230;2023-04-24T00:37:47;5.78;;;4.40;;
51034;SDS011;37062;52.546;13.230;2023-04-24T00:40:16;4.82;;;4.30;;
51034;SDS011;37062;52.546;13.230;2023-04-24T00:42:44;5.03;;;4.53;;
51034;SDS011;37062;52.546;13.230;2023-04-24T00:45:14;7.45;;;4.65;;
51034;SDS011;37062;52.546;13.230;2023-04-24T00:47:42;6.18;;;5.57;;
51034;SDS011;37062;52.546;13.230;2023-04-24T00:50:13;5.85;;;4.80;;
51034;SDS011;37062;52.546;13.230;2023-04-24T00:52:42;7.05;;;5.80;;
51034;SDS011;37062;52.546;13.230;2023-04-24T00:55:10;6.25;;;5.63;;
51034;SDS011;37062;52.546;13.230;2023-04-24T00:57:39;5.82;;;5.32;;
51034;SDS011;37062;52.546;13.230;2023-04-24T01:00:07;6.40;;;5.70;;
51034;SDS011;37062;52.546;13.230;2023-04-24T01:02:40;6.95;;;4.90;;
51034;SDS011;37062;52.546;13.230;2023-04-24T01:05:11;5.05;;;4.63;;
51034;SDS011;37062;52.546;13.230;2023-04-24T01:07:43;6.25;;;4.50;;
51034;SDS011;37062;52.546;13.230;2023-04-24T01:10:13;6.90;;;4.57;;
51034;SDS011;37062;52.546;13.230;2023-04-24T01:12:44;5.80;;;4.38;;
51034;SDS011;37062;52.546;13.230;2023-04-24T01:15:13;4.53;;;4.13;;
51034;SDS011;37062;52.546;13.230;2023-04-24T01:17:43;5.32;;;4.40;;
51034;SDS011;37062;52.546;13.230;2023-04-24T01:20:13;4.32;;;3.92;;
51034;SDS011;37062;52.546;13.230;2023-04-24T01:22:43;5.28;;;4.18;;
51034;SDS011;37062;52.546;13.230;2023-04-24T01:25:11;5.18;;;4.55;;
51034;SDS011;37062;52.546;13.230;2023-04-24T01:27:39;5.28;;;4.78;;
51034;SDS011;37062;52.546;13.230;2023-04-24T01:30:08;5.22;;;4.72;;
51034;SDS011;37062;52.546;13.230;2023-04-24T01:32:37;5.32;;;4.68;;
51034;SDS011;37062;52.546;13.230;2023-04-24T01:35:07;4.95;;;4.45;;
51034;SDS011;37062;52.546;13.230;2023-04-24T01:37:35;4.75;;;4.20;;
51034;SDS011;37062;52.546;13.230;2023-04-24T01:40:07;5.03;;;4.53;;
51034;SDS011;37062;52.546;13.230;2023-04-24T01:42:36;5.93;;;4.20;;
51034;SDS011;37062;52.546;13.230;2023-04-24T01:45:04;4.93;;;4.43;;
51034;SDS011;37062;52.546;13.230;2023-04-24T01:47:33;4.82;;;4.40;;
51034;SDS011;37062;52.546;13.230;2023-04-24T01:50:02;4.80;;;4.40;;
51034;SDS011;37062;52.546;13.230;2023-04-24T01:52:31;5.13;;;4.63;;
51034;SDS011;37062;52.546;13.230;2023-04-24T01:54:59;4.60;;;4.20;;
51034;SDS011;37062;52.546;13.230;2023-04-24T01:57:29;5.03;;;4.55;;
51034;SDS011;37062;52.546;13.230;2023-04-24T01:59:58;5.13;;;4.60;;
51034;SDS011;37062;52.546;13.230;2023-04-24T02:02:27;5.30;;;4.80;;
51034;SDS011;37062;52.546;13.230;2023-04-24T02:04:56;5.70;;;4.57;;
51034;SDS011;37062;52.546;13.230;2023-04-24T02:07:25;7.88;;;5.35;;
51034;SDS011;37062;52.546;13.230;2023-04-24T02:09:53;5.50;;;5.00;;
51034;SDS011;37062;52.546;13.230;2023-04-24T02:12:21;5.13;;;4.63;;
51034;SDS011;37062;52.546;13.230;2023-04-24T02:14:52;4.95;;;4.55;;
51034;SDS011;37062;52.546;13.230;2023-04-24T02:17:20;6.03;;;5.05;;
51034;SDS011;37062;52.546;13.230;2023-04-24T02:19:49;6.15;;;4.70;;
51034;SDS011;37062;52.546;13.230;2023-04-24T02:22:17;7.05;;;4.85;;
51034;SDS011;37062;52.546;13.230;2023-04-24T02:24:45;5.43;;;4.85;;
51034;SDS011;37062;52.546;13.230;2023-04-24T02:27:14;6.05;;;4.80;;
51034;SDS011;37062;52.546;13.230;2023-04-24T02:29:43;4.80;;;4.40;;
51034;SDS011;37062;52.546;13.230;2023-04-24T02:32:13;6.15;;;4.70;;
51034;SDS011;37062;52.546;13.230;2023-04-24T02:34:42;5.63;;;4.25;;
51034;SDS011;37062;52.546;13.230;2023-04-24T02:37:11;5.35;;;4.85;;
51034;SDS011;37062;52.546;13.230;2023-04-24T02:39:39;4.93;;;3.97;;
51034;SDS011;37062;52.546;13.230;2023-04-24T02:42:08;5.28;;;4.63;;
51034;SDS011;37062;52.546;13.230;2023-04-24T02:44:36;5.45;;;4.72;;
51034;SDS011;37062;52.546;13.230;2023-04-24T02:47:04;5.20;;;4.38;;
51034;SDS011;37062;52.546;13.230;2023-04-24T02:49:35;5.20;;;4.70;;
51034;SDS011;37062;52.546;13.230;2023-04-24T02:52:04;4.75;;;4.35;;
51034;SDS011;37062;52.546;13.230;2023-04-24T02:54:32;4.93;;;4.47;;
51034;SDS011;37062;52.546;13.230;2023-04-24T02:57:00;5.45;;;4.53;;
51034;SDS011;37062;52.546;13.230;2023-04-24T02:59:29;5.35;;;4.85;;
51034;SDS011;37062;52.546;13.230;2023-04-24T03:01:58;5.10;;;4.70;;
51034;SDS011;37062;52.546;13.230;2023-04-24T03:04:26;6.13;;;5.43;;
51034;SDS011;37062;52.546;13.230;2023-04-24T03:06:56;6.47;;;5.20;;
51034;SDS011;37062;52.546;13.230;2023-04-24T03:09:25;6.03;;;4.78;;
51034;SDS011;37062;52.546;13.230;2023-04-24T03:11:53;6.07;;;5.47;;
51034;SDS011;37062;52.546;13.230;2023-04-24T03:14:23;4.90;;;4.45;;
51034;SDS011;37062;52.546;13.230;2023-04-24T03:16:51;5.32;;;4.82;;
51034;SDS011;37062;52.546;13.230;2023-04-24T03:19:20;5.50;;;5.00;;
51034;SDS011;37062;52.546;13.230;2023-04-24T03:21:59;6.63;;;5.30;;
51034;SDS011;37062;52.546;13.230;2023-04-24T03:24:30;5.15;;;4.65;;
51034;SDS011;37062;52.546;13.230;2023-04-24T03:26:58;4.75;;;4.32;;
51034;SDS011;37062;52.546;13.230;2023-04-24T03:29:43;5.20;;;4.70;;
51034;SDS011;37062;52.546;13.230;2023-04-24T03:32:12;4.88;;;4.47;;
51034;SDS011;37062;52.546;13.230;2023-04-24T03:34:41;5.40;;;4.90;;
51034;SDS011;37062;52.546;13.230;2023-04-24T03:37:14;5.38;;;4.47;;
51034;SDS011;37062;52.546;13.230;2023-04-24T03:39:48;6.47;;;4.93;;
51034;SDS011;37062;52.546;13.230;2023-04-24T03:42:22;5.15;;;4.63;;
51034;SDS011;37062;52.546;13.230;2023-04-24T03:44:54;6.20;;;4.50;;
51034;SDS011;37062;52.546;13.230;2023-04-24T03:47:27;5.30;;;4.80;;
51034;SDS011;37062;52.546;13.230;2023-04-24T03:49:59;5.55;;;5.03;;
51034;SDS011;37062;52.546;13.230;2023-04-24T03:52:30;5.30;;;4.80;;
51034;SDS011;37062;52.546;13.230;2023-04-24T03:54:58;5.00;;;4.00;;
51034;SDS011;37062;52.546;13.230;2023-04-24T03:57:28;4.47;;;4.07;;
51034;SDS011;37062;52.546;13.230;2023-04-24T04:00:08;4.60;;;4.20;;
51034;SDS011;37062;52.546;13.230;2023-04-24T04:02:43;4.60;;;4.20;;
51034;SDS011;37062;52.546;13.230;2023-04-24T04:05:11;4.72;;;4.30;;
51034;SDS011;37062;52.546;13.230;2023-04-24T04:07:42;5.13;;;4.40;;
51034;SDS011;37062;52.546;13.230;2023-04-24T04:10:10;4.65;;;4.20;;
51034;SDS011;37062;52.546;13.230;2023-04-24T04:12:38;5.88;;;3.75;;
51034;SDS011;37062;52.546;13.230;2023-04-24T04:15:07;5.38;;;3.70;;
51034;SDS011;37062;52.546;13.230;2023-04-24T04:17:36;4.55;;;4.15;;
51034;SDS011;37062;52.546;13.230;2023-04-24T04:20:07;5.05;;;3.80;;
51034;SDS011;37062;52.546;13.230;2023-04-24T04:22:38;4.20;;;3.80;;
51034;SDS011;37062;52.546;13.230;2023-04-24T04:25:15;4.65;;;4.00;;
51034;SDS011;37062;52.546;13.230;2023-04-24T04:27:45;4.43;;;4.03;;
51034;SDS011;37062;52.546;13.230;2023-04-24T04:30:14;5.45;;;3.95;;
51034;SDS011;37062;52.546;13.230;2023-04-24T04:32:51;4.18;;;3.60;;
51034;SDS011;37062;52.546;13.230;2023-04-24T04:35:20;4.15;;;3.75;;
51034;SDS011;37062;52.546;13.230;2023-04-24T04:37:51;5.95;;;3.88;;
51034;SDS011;37062;52.546;13.230;2023-04-24T04:40:31;7.18;;;4.15;;
51034;SDS011;37062;52.546;13.230;2023-04-24T04:43:03;5.28;;;3.90;;
51034;SDS011;37062;52.546;13.230;2023-04-24T04:45:40;5.78;;;5.10;;
51034;SDS011;37062;52.546;13.230;2023-04-24T04:48:32;6.70;;;5.00;;
51034;SDS011;37062;52.546;13.230;2023-04-24T04:51:04;11.32;;;7.88;;
51034;SDS011;37062;52.546;13.230;2023-04-24T04:53:32;8.82;;;5.72;;
51034;SDS011;37062;52.546;13.230;2023-04-24T04:56:02;7.00;;;5.40;;
51034;SDS011;37062;52.546;13.230;2023-04-24T04:58:38;4.75;;;4.30;;
51034;SDS011;37062;52.546;13.230;2023-04-24T05:01:10;5.00;;;4.43;;
51034;SDS011;37062;52.546;13.230;2023-04-24T05:03:41;5.95;;;5.00;;
51034;SDS011;37062;52.546;13.230;2023-04-24T05:06:12;5.90;;;4.43;;
51034;SDS011;37062;52.546;13.230;2023-04-24T05:08:44;7.07;;;4.45;;
51034;SDS011;37062;52.546;13.230;2023-04-24T05:11:26;6.93;;;4.28;;
51034;SDS011;37062;52.546;13.230;2023-04-24T05:13:56;5.32;;;3.75;;
51034;SDS011;37062;52.546;13.230;2023-04-24T05:16:34;5.72;;;4.30;;
51034;SDS011;37062;52.546;13.230;2023-04-24T05:19:04;4.13;;;3.50;;
51034;SDS011;37062;52.546;13.230;2023-04-24T05:21:39;3.85;;;3.22;;
51034;SDS011;37062;52.546;13.230;2023-04-24T05:24:08;4.63;;;3.00;;
51034;SDS011;37062;52.546;13.230;2023-04-24T05:26:51;3.90;;;3.28;;
51034;SDS011;37062;52.546;13.230;2023-04-24T05:29:24;4.22;;;3.30;;
51034;SDS011;37062;52.546;13.230;2023-04-24T05:31:53;4.63;;;3.42;;
51034;SDS011;37062;52.546;13.230;2023-04-24T05:34:22;4.03;;;2.85;;
51034;SDS011;37062;52.546;13.230;2023-04-24T05:36:54;5.28;;;3.58;;
51034;SDS011;37062;52.546;13.230;2023-04-24T05:39:22;4.20;;;3.80;;
51034;SDS011;37062;52.546;13.230;2023-04-24T05:41:53;4.18;;;3.78;;
51034;SDS011;37062;52.546;13.230;2023-04-24T05:44:24;5.20;;;3.78;;
51034;SDS011;37062;52.546;13.230;2023-04-24T05:46:52;5.07;;;4.18;;
51034;SDS011;37062;52.546;13.230;2023-04-24T05:49:22;6.82;;;5.13;;
51034;SDS011;37062;52.546;13.230;2023-04-24T05:51:51;4.78;;;3.88;;
51034;SDS011;37062;52.546;13.230;2023-04-24T05:54:19;4.38;;;3.65;;
51034;SDS011;37062;52.546;13.230;2023-04-24T05:56:47;5.10;;;4.25;;
51034;SDS011;37062;52.546;13.230;2023-04-24T05:59:30;5.25;;;4.13;;
51034;SDS011;37062;52.546;13.230;2023-04-24T06:01:58;8.20;;;4.72;;
51034;SDS011;37062;52.546;13.230;2023-04-24T06:04:27;48.20;;;25.83;;
51034;SDS011;37062;52.546;13.230;2023-04-24T06:06:57;6.50;;;5.60;;
51034;SDS011;37062;52.546;13.230;2023-04-24T06:09:26;5.57;;;4.07;;
51034;SDS011;37062;52.546;13.230;2023-04-24T06:11:54;5.80;;;3.33;;
51034;SDS011;37062;52.546;13.230;2023-04-24T06:14:33;5.63;;;3.85;;
51034;SDS011;37062;52.546;13.230;2023-04-24T06:17:16;5.72;;;3.33;;
51034;SDS011;37062;52.546;13.230;2023-04-24T06:19:45;5.90;;;3.70;;
51034;SDS011;37062;52.546;13.230;2023-04-24T06:22:14;3.65;;;3.35;;
51034;SDS011;37062;52.546;13.230;2023-04-24T06:24:42;2.88;;;2.22;;
51034;SDS011;37062;52.546;13.230;2023-04-24T06:27:10;2.75;;;2.15;;
51034;SDS011;37062;52.546;13.230;2023-04-24T06:29:42;2.67;;;1.90;;
51034;SDS011;37062;52.546;13.230;2023-04-24T06:32:11;3.83;;;2.47;;
51034;SDS011;37062;52.546;13.230;2023-04-24T06:34:39;2.28;;;1.98;;
51034;SDS011;37062;52.546;13.230;2023-04-24T06:37:08;2.33;;;2.00;;
51034;SDS011;37062;52.546;13.230;2023-04-24T06:39:37;4.20;;;2.35;;
51034;SDS011;37062;52.546;13.230;2023-04-24T06:42:05;2.63;;;1.75;;
51034;SDS011;37062;52.546;13.230;2023-04-24T06:44:34;1.58;;;1.45;;
51034;SDS011;37062;52.546;13.230;2023-04-24T06:47:08;3.50;;;1.85;;
51034;SDS011;37062;52.546;13.230;2023-04-24T06:49:40;3.58;;;2.88;;
51034;SDS011;37062;52.546;13.230;2023-04-24T06:52:08;4.53;;;3.63;;
51034;SDS011;37062;52.546;13.230;2023-04-24T06:54:37;3.95;;;2.35;;
51034;SDS011;37062;52.546;13.230;2023-04-24T06:57:05;2.22;;;1.67;;
51034;SDS011;37062;52.546;13.230;2023-04-24T06:59:33;1.48;;;1.15;;
51034;SDS011;37062;52.546;13.230;2023-04-24T07:02:01;1.88;;;1.33;;
51034;SDS011;37062;52.546;13.230;2023-04-24T07:04:31;2.80;;;2.25;;
51034;SDS011;37062;52.546;13.230;2023-04-24T07:06:59;2.30;;;1.60;;
51034;SDS011;37062;52.546;13.230;2023-04-24T07:09:27;3.85;;;1.50;;
51034;SDS011;37062;52.546;13.230;2023-04-24T07:11:55;4.57;;;2.70;;
51034;SDS011;37062;52.546;13.230;2023-04-24T07:14:24;2.30;;;1.90;;
51034;SDS011;37062;52.546;13.230;2023-04-24T07:16:52;1.67;;;1.55;;
51034;SDS011;37062;52.546;13.230;2023-04-24T07:19:20;2.38;;;1.42;;
51034;SDS011;37062;52.546;13.230;2023-04-24T07:21:49;1.83;;;1.00;;
51034;SDS011;37062;52.546;13.230;2023-04-24T07:24:18;1.52;;;0.90;;
51034;SDS011;37062;52.546;13.230;2023-04-24T07:26:48;0.82;;;0.82;;
51034;SDS011;37062;52.546;13.230;2023-04-24T07:29:18;1.75;;;1.50;;
51034;SDS011;37062;52.546;13.230;2023-04-24T07:31:47;2.28;;;1.63;;
51034;SDS011;37062;52.546;13.230;2023-04-24T07:34:15;4.90;;;2.15;;
51034;SDS011;37062;52.546;13.230;2023-04-24T07:36:43;6.78;;;5.05;;
51034;SDS011;37062;52.546;13.230;2023-04-24T07:39:13;3.40;;;2.45;;
51034;SDS011;37062;52.546;13.230;2023-04-24T07:41:41;3.92;;;2.55;;
51034;SDS011;37062;52.546;13.230;2023-04-24T07:44:09;3.20;;;2.42;;
51034;SDS011;37062;52.546;13.230;2023-04-24T07:46:38;2.60;;;1.70;;
51034;SDS011;37062;52.546;13.230;2023-04-24T07:49:06;1.33;;;1.10;;
51034;SDS011;37062;52.546;13.230;2023-04-24T07:51:39;1.17;;;1.02;;
51034;SDS011;37062;52.546;13.230;2023-04-24T07:54:08;2.80;;;1.38;;
51034;SDS011;37062;52.546;13.230;2023-04-24T07:56:38;2.72;;;1.88;;
51034;SDS011;37062;52.546;13.230;2023-04-24T07:59:06;3.70;;;1.95;;
51034;SDS011;37062;52.546;13.230;2023-04-24T08:01:36;2.58;;;2.00;;
51034;SDS011;37062;52.546;13.230;2023-04-24T08:04:04;2.70;;;2.05;;
51034;SDS011;37062;52.546;13.230;2023-04-24T08:06:33;1.08;;;0.95;;
51034;SDS011;37062;52.546;13.230;2023-04-24T08:09:01;1.67;;;1.50;;
51034;SDS011;37062;52.546;13.230;2023-04-24T08:11:30;1.13;;;0.90;;
51034;SDS011;37062;52.546;13.230;2023-04-24T08:14:00;0.98;;;0.95;;
51034;SDS011;37062;52.546;13.230;2023-04-24T08:16:28;2.47;;;1.85;;
51034;SDS011;37062;52.546;13.230;2023-04-24T08:18:57;1.30;;;1.20;;
51034;SDS011;37062;52.546;13.230;2023-04-24T08:21:25;4.97;;;2.30;;
51034;SDS011;37062;52.546;13.230;2023-04-24T08:23:53;1.65;;;1.10;;
51034;SDS011;37062;52.546;13.230;2023-04-24T08:26:21;1.20;;;1.02;;
51034;SDS011;37062;52.546;13.230;2023-04-24T08:28:50;3.55;;;1.83;;
51034;SDS011;37062;52.546;13.230;2023-04-24T08:31:19;2.60;;;1.70;;
51034;SDS011;37062;52.546;13.230;2023-04-24T08:33:49;2.03;;;1.63;;
51034;SDS011;37062;52.546;13.230;2023-04-24T08:36:17;1.10;;;1.00;;
51034;SDS011;37062;52.546;13.230;2023-04-24T08:38:45;1.00;;;0.90;;
51034;SDS011;37062;52.546;13.230;2023-04-24T08:41:14;1.63;;;1.10;;
51034;SDS011;37062;52.546;13.230;2023-04-24T08:43:42;2.00;;;1.50;;
51034;SDS011;37062;52.546;13.230;2023-04-24T08:46:13;2.83;;;2.15;;
51034;SDS011;37062;52.546;13.230;2023-04-24T08:48:44;1.17;;;0.93;;
51034;SDS011;37062;52.546;13.230;2023-04-24T08:51:13;1.10;;;0.82;;
51034;SDS011;37062;52.546;13.230;2023-04-24T08:53:41;0.77;;;0.70;;
51034;SDS011;37062;52.546;13.230;2023-04-24T08:56:10;2.30;;;1.10;;
51034;SDS011;37062;52.546;13.230;2023-04-24T08:58:40;1.33;;;0.77;;
51034;SDS011;37062;52.546;13.230;2023-04-24T09:01:08;1.35;;;0.80;;
51034;SDS011;37062;52.546;13.230;2023-04-24T09:03:37;1.52;;;0.80;;
51034;SDS011;37062;52.546;13.230;2023-04-24T09:06:07;0.73;;;0.70;;
51034;SDS011;37062;52.546;13.230;2023-04-24T09:08:36;2.08;;;1.60;;
51034;SDS011;37062;52.546;13.230;2023-04-24T09:11:07;2.08;;;1.88;;
51034;SDS011;37062;52.546;13.230;2023-04-24T09:13:37;3.50;;;1.90;;
51034;SDS011;37062;52.546;13.230;2023-04-24T09:16:05;3.35;;;1.92;;
51034;SDS011;37062;52.546;13.230;2023-04-24T09:18:34;4.90;;;2.55;;
51034;SDS011;37062;52.546;13.230;2023-04-24T09:21:03;2.35;;;2.13;;
51034;SDS011;37062;52.546;13.230;2023-04-24T09:23:35;6.97;;;2.83;;
51034;SDS011;37062;52.546;13.230;2023-04-24T09:26:04;3.67;;;2.92;;
51034;SDS011;37062;52.546;13.230;2023-04-24T09:28:34;1.92;;;1.75;;
51034;SDS011;37062;52.546;13.230;2023-04-24T09:31:04;2.78;;;1.90;;
51034;SDS011;37062;52.546;13.230;2023-04-24T09:33:34;2.95;;;2.22;;
51034;SDS011;37062;52.546;13.230;2023-04-24T09:36:03;5.63;;;2.47;;
51034;SDS011;37062;52.546;13.230;2023-04-24T09:38:33;3.13;;;1.70;;
51034;SDS011;37062;52.546;13.230;2023-04-24T09:41:04;2.25;;;1.42;;
51034;SDS011;37062;52.546;13.230;2023-04-24T09:43:34;2.42;;;1.30;;
51034;SDS011;37062;52.546;13.230;2023-04-24T09:46:06;2.88;;;1.05;;
51034;SDS011;37062;52.546;13.230;2023-04-24T09:48:36;4.18;;;2.50;;
51034;SDS011;37062;52.546;13.230;2023-04-24T09:51:06;6.72;;;3.08;;
51034;SDS011;37062;52.546;13.230;2023-04-24T09:53:37;9.02;;;5.32;;
51034;SDS011;37062;52.546;13.230;2023-04-24T09:56:12;3.95;;;2.55;;
51034;SDS011;37062;52.546;13.230;2023-04-24T09:58:40;3.28;;;1.33;;
51034;SDS011;37062;52.546;13.230;2023-04-24T10:01:09;4.65;;;1.13;;
51034;SDS011;37062;52.546;13.230;2023-04-24T10:03:37;1.70;;;1.00;;
51034;SDS011;37062;52.546;13.230;2023-04-24T10:06:05;1.83;;;1.30;;
51034;SDS011;37062;52.546;13.230;2023-04-24T10:08:36;4.32;;;2.42;;
51034;SDS011;37062;52.546;13.230;2023-04-24T10:11:04;4.35;;;3.10;;
51034;SDS011;37062;52.546;13.230;2023-04-24T10:13:35;2.72;;;1.65;;
51034;SDS011;37062;52.546;13.230;2023-04-24T10:16:03;1.33;;;0.90;;
51034;SDS011;37062;52.546;13.230;2023-04-24T10:18:32;2.30;;;1.40;;
51034;SDS011;37062;52.546;13.230;2023-04-24T10:21:02;3.20;;;1.00;;
51034;SDS011;37062;52.546;13.230;2023-04-24T10:23:31;2.00;;;1.02;;
51034;SDS011;37062;52.546;13.230;2023-04-24T10:26:00;1.38;;;1.00;;
51034;SDS011;37062;52.546;13.230;2023-04-24T10:28:29;8.70;;;4.90;;
51034;SDS011;37062;52.546;13.230;2023-04-24T10:31:03;3.65;;;1.20;;
51034;SDS011;37062;52.546;13.230;2023-04-24T10:33:32;2.20;;;1.38;;
51034;SDS011;37062;52.546;13.230;2023-04-24T10:36:00;2.72;;;1.20;;
51034;SDS011;37062;52.546;13.230;2023-04-24T10:38:30;2.83;;;1.05;;
51034;SDS011;37062;52.546;13.230;2023-04-24T10:41:06;1.75;;;1.08;;
51034;SDS011;37062;52.546;13.230;2023-04-24T10:43:35;2.13;;;0.88;;
51034;SDS011;37062;52.546;13.230;2023-04-24T10:46:05;0.93;;;0.80;;
51034;SDS011;37062;52.546;13.230;2023-04-24T10:48:34;1.95;;;1.20;;
51034;SDS011;37062;52.546;13.230;2023-04-24T10:51:03;1.13;;;0.93;;
51034;SDS011;37062;52.546;13.230;2023-04-24T10:53:31;2.72;;;1.00;;
51034;SDS011;37062;52.546;13.230;2023-04-24T10:56:03;4.45;;;1.17;;
51034;SDS011;37062;52.546;13.230;2023-04-24T10:58:36;6.90;;;3.60;;
51034;SDS011;37062;52.546;13.230;2023-04-24T11:01:08;8.88;;;4.82;;
51034;SDS011;37062;52.546;13.230;2023-04-24T11:03:36;3.30;;;2.70;;
51034;SDS011;37062;52.546;13.230;2023-04-24T11:06:08;6.80;;;1.80;;
51034;SDS011;37062;52.546;13.230;2023-04-24T11:08:37;5.05;;;2.45;;
51034;SDS011;37062;52.546;13.230;2023-04-24T11:11:10;7.55;;;3.40;;
51034;SDS011;37062;52.546;13.230;2023-04-24T11:16:36;9.90;;;4.72;;
51034;SDS011;37062;52.546;13.230;2023-04-24T11:19:18;12.50;;;5.47;;
51034;SDS011;37062;52.546;13.230;2023-04-24T11:21:54;11.93;;;6.22;;
51034;SDS011;37062;52.546;13.230;2023-04-24T11:24:26;5.15;;;3.45;;
51034;SDS011;37062;52.546;13.230;2023-04-24T11:26:59;7.43;;;2.90;;
51034;SDS011;37062;52.546;13.230;2023-04-24T11:29:39;4.03;;;2.83;;
51034;SDS011;37062;52.546;13.230;2023-04-24T11:32:17;2.80;;;1.10;;
51034;SDS011;37062;52.546;13.230;2023-04-24T11:34:48;2.92;;;1.25;;
51034;SDS011;37062;52.546;13.230;2023-04-24T11:37:17;2.58;;;1.85;;
51034;SDS011;37062;52.546;13.230;2023-04-24T11:39:45;1.50;;;1.40;;
51034;SDS011;37062;52.546;13.230;2023-04-24T11:42:14;4.25;;;1.50;;
51034;SDS011;37062;52.546;13.230;2023-04-24T11:44:43;3.33;;;1.10;;
51034;SDS011;37062;52.546;13.230;2023-04-24T11:47:13;1.10;;;1.00;;
51034;SDS011;37062;52.546;13.230;2023-04-24T11:49:43;1.70;;;0.80;;
51034;SDS011;37062;52.546;13.230;2023-04-24T11:52:11;2.83;;;0.80;;
51034;SDS011;37062;52.546;13.230;2023-04-24T11:54:47;3.03;;;0.80;;
51034;SDS011;37062;52.546;13.230;2023-04-24T11:57:16;1.85;;;1.08;;
51034;SDS011;37062;52.546;13.230;2023-04-24T11:59:48;3.63;;;2.38;;
51034;SDS011;37062;52.546;13.230;2023-04-24T12:02:20;1.45;;;0.90;;
51034;SDS011;37062;52.546;13.230;2023-04-24T12:04:51;3.22;;;0.70;;
51034;SDS011;37062;52.546;13.230;2023-04-24T12:07:20;1.35;;;0.90;;
51034;SDS011;37062;52.546;13.230;2023-04-24T12:09:54;2.42;;;0.80;;
51034;SDS011;37062;52.546;13.230;2023-04-24T12:12:24;1.15;;;0.73;;
51034;SDS011;37062;52.546;13.230;2023-04-24T12:14:54;1.27;;;0.70;;
51034;SDS011;37062;52.546;13.230;2023-04-24T12:17:24;0.95;;;0.70;;
51034;SDS011;37062;52.546;13.230;2023-04-24T12:19:58;2.95;;;0.65;;
51034;SDS011;37062;52.546;13.230;2023-04-24T12:22:28;3.00;;;0.80;;
51034;SDS011;37062;52.546;13.230;2023-04-24T12:25:11;1.55;;;0.80;;
51034;SDS011;37062;52.546;13.230;2023-04-24T12:27:39;1.33;;;1.00;;
51034;SDS011;37062;52.546;13.230;2023-04-24T12:30:10;2.45;;;1.50;;
51034;SDS011;37062;52.546;13.230;2023-04-24T12:32:42;2.95;;;1.50;;
51034;SDS011;37062;52.546;13.230;2023-04-24T12:35:12;0.73;;;0.73;;
51034;SDS011;37062;52.546;13.230;2023-04-24T12:37:42;1.98;;;0.70;;
51034;SDS011;37062;52.546;13.230;2023-04-24T12:40:13;1.02;;;0.90;;
51034;SDS011;37062;52.546;13.230;2023-04-24T12:42:42;0.65;;;0.60;;
51034;SDS011;37062;52.546;13.230;2023-04-24T12:45:11;1.25;;;0.70;;
51034;SDS011;37062;52.546;13.230;2023-04-24T12:47:40;0.50;;;0.50;;
51034;SDS011;37062;52.546;13.230;2023-04-24T12:50:10;1.58;;;0.90;;
51034;SDS011;37062;52.546;13.230;2023-04-24T12:52:41;2.75;;;1.00;;
51034;SDS011;37062;52.546;13.230;2023-04-24T12:55:09;2.10;;;0.82;;
51034;SDS011;37062;52.546;13.230;2023-04-24T12:57:39;2.45;;;1.08;;
51034;SDS011;37062;52.546;13.230;2023-04-24T13:00:08;1.63;;;1.33;;
51034;SDS011;37062;52.546;13.230;2023-04-24T13:02:36;2.75;;;1.33;;
51034;SDS011;37062;52.546;13.230;2023-04-24T13:05:05;2.13;;;1.00;;
51034;SDS011;37062;52.546;13.230;2023-04-24T13:07:35;1.85;;;1.42;;
51034;SDS011;37062;52.546;13.230;2023-04-24T13:10:03;1.65;;;1.23;;
51034;SDS011;37062;52.546;13.230;2023-04-24T13:12:32;1.77;;;0.90;;
51034;SDS011;37062;52.546;13.230;2023-04-24T13:15:01;1.45;;;1.00;;
51034;SDS011;37062;52.546;13.230;2023-04-24T13:17:30;1.60;;;0.80;;
51034;SDS011;37062;52.546;13.230;2023-04-24T13:19:59;2.35;;;0.80;;
51034;SDS011;37062;52.546;13.230;2023-04-24T13:22:27;5.75;;;1.10;;
51034;SDS011;37062;52.546;13.230;2023-04-24T13:24:57;1.58;;;0.88;;
51034;SDS011;37062;52.546;13.230;2023-04-24T13:27:25;1.95;;;0.80;;
51034;SDS011;37062;52.546;13.230;2023-04-24T13:29:54;1.95;;;0.90;;
51034;SDS011;37062;52.546;13.230;2023-04-24T13:32:22;1.45;;;1.35;;
51034;SDS011;37062;52.546;13.230;2023-04-24T13:34:50;7.07;;;1.30;;
51034;SDS011;37062;52.546;13.230;2023-04-24T13:37:18;3.60;;;1.20;;
51034;SDS011;37062;52.546;13.230;2023-04-24T13:39:46;1.65;;;1.30;;
51034;SDS011;37062;52.546;13.230;2023-04-24T13:42:16;3.30;;;1.35;;
51034;SDS011;37062;52.546;13.230;2023-04-24T13:44:45;4.50;;;3.17;;
51034;SDS011;37062;52.546;13.230;2023-04-24T13:47:13;2.45;;;1.88;;
51034;SDS011;37062;52.546;13.230;2023-04-24T13:49:41;4.80;;;3.20;;
51034;SDS011;37062;52.546;13.230;2023-04-24T13:52:09;2.95;;;1.63;;
51034;SDS011;37062;52.546;13.230;2023-04-24T13:54:37;5.95;;;2.15;;
51034;SDS011;37062;52.546;13.230;2023-04-24T13:57:05;2.55;;;1.90;;
51034;SDS011;37062;52.546;13.230;2023-04-24T13:59:36;3.85;;;1.30;;
51034;SDS011;37062;52.546;13.230;2023-04-24T14:02:04;1.52;;;1.42;;
51034;SDS011;37062;52.546;13.230;2023-04-24T14:04:32;2.88;;;1.90;;
51034;SDS011;37062;52.546;13.230;2023-04-24T14:07:01;4.13;;;1.63;;
51034;SDS011;37062;52.546;13.230;2023-04-24T14:09:29;3.00;;;2.20;;
51034;SDS011;37062;52.546;13.230;2023-04-24T14:11:57;3.10;;;1.20;;
51034;SDS011;37062;52.546;13.230;2023-04-24T14:14:27;2.38;;;1.20;;
51034;SDS011;37062;52.546;13.230;2023-04-24T14:16:57;7.20;;;1.25;;
51034;SDS011;37062;52.546;13.230;2023-04-24T14:19:26;2.90;;;1.10;;
51034;SDS011;37062;52.546;13.230;2023-04-24T14:21:54;2.60;;;1.30;;
51034;SDS011;37062;52.546;13.230;2023-04-24T14:24:24;3.75;;;1.30;;
51034;SDS011;37062;52.546;13.230;2023-04-24T14:26:53;2.22;;;1.35;;
51034;SDS011;37062;52.546;13.230;2023-04-24T14:29:22;2.30;;;1.45;;
51034;SDS011;37062;52.546;13.230;2023-04-24T14:31:52;8.07;;;2.30;;
51034;SDS011;37062;52.546;13.230;2023-04-24T14:34:22;6.60;;;1.50;;
51034;SDS011;37062;52.546;13.230;2023-04-24T14:36:50;4.05;;;1.52;;
51034;SDS011;37062;52.546;13.230;2023-04-24T14:39:19;4.80;;;1.65;;
51034;SDS011;37062;52.546;13.230;2023-04-24T14:41:48;3.05;;;1.77;;
51034;SDS011;37062;52.546;13.230;2023-04-24T14:44:16;2.33;;;1.38;;
51034;SDS011;37062;52.546;13.230;2023-04-24T14:46:44;3.55;;;2.10;;
51034;SDS011;37062;52.546;13.230;2023-04-24T14:49:13;3.58;;;1.90;;
51034;SDS011;37062;52.546;13.230;2023-04-24T14:51:42;4.95;;;2.30;;